KSYR/SYR METAR and TAF weather

Enter ICAO airport designator
Station Type Date Time Source
KSYR METAR 2018/12/11 21:54 UTC NOAA

KSYR 112154Z 24009KT 6SM -SN BKN030 OVC043 M02/M06 A2997 RMK AO2 SLP151 P0000 T10171056


Station Type Date Time Source
KSYR Decoded METAR 2018/12/11 21:54 UTC NOAA

SYRACUSE HANCOCK INTERNATIONAL AIRPORT , NY, United States (KSYR) 43-07N 76-06W 127M
Dec 11, 2018 - 04:54 PM EST / 2018.12.11 2154 UTC
Wind: from the WSW (240 degrees) at 10 MPH (9 KT):0
Visibility: 6 mile(s):0
Sky conditions: overcast
Weather: light snow
Precipitation last hour: A trace
Temperature: 28.9 F (-1.7 C)
Windchill: 19 F (-7 C):1
Dew Point: 21.9 F (-5.6 C)
Relative Humidity: 74%
Pressure (altimeter): 29.97 in. Hg (1014 hPa)
ob: KSYR 112154Z 24009KT 6SM -SN BKN030 OVC043 M02/M06 A2997 RMK AO2 SLP151 P0000 T10171056
cycle: 22

Station Type Date Time Source
KSYR TAF 2018/12/11 22:09 UTC NOAA

TAF
AMD KSYR 112206Z 1122/1218 24006KT 6SM -SN BKN025
TEMPO 1200/1204 3SM -SHSN OVC015
FM120400 26005KT 2SM -SHSN BR OVC015
FM120700 33005KT P6SM OVC025
FM121600 36005KT P6SM BKN035


Example: see airport list